Haskell, NJ (07420)

5:49 PM EDT on July 01, 2015 (GMT -0400)
Greenwood Avenue | | Change Station
CLOSE
Current Station
Personal Weather Station
Location: Haskell, NJ
Elevation: 250 ft
Nearby Weather Stations

Elev 250 ft 41.02 °N, 74.30 °W | Updated 4 minutes ago

Partly Cloudy
Partly Cloudy
80.9 °F
Feels Like 83 °F
N
0.0
Wind Variable Wind from SE
Gusts 3.0 mph

Today
High -- | Low -- °F
--% Chance of Precip.
Yesterday
High -- | Low -- °F
Precip. -- in
5:28 AM 8:33 PM
Full, 100% visible
Pressure 29.78 in
Visibility 9.0 miles
Clouds Scattered Clouds 5500 ft
Heat Index 83 °F
Dew Point 64 °F
Humidity 57%
Rainfall 0.00 in
Snow Depth Not available.
UV 1.6 out of 12
Pollen .50 out of 12
Air Quality Not available.
Flu Activity Not available.
METAR KCDW 012053Z 26008G19KT 9SM SCT055 28/16 A2977 RMK AO2 SLP084 T02830156 55007

More Conditions Fewer Conditions

Pressure 29.78 in
Visibility 9.0 miles
Clouds Scattered Clouds 5500 ft
Heat Index 83 °F
Dew Point 64 °F
Humidity 57%
Rainfall 0.00 in
Snow Depth Not available.
UV 1.6 out of 12
Pollen .50 out of 12
Air Quality Not available.
Flu Activity Not available.
METAR KCDW 012053Z 26008G19KT 9SM SCT055 28/16 A2977 RMK AO2 SLP084 T02830156 55007

More Conditions Fewer Conditions

10-Day Weather Forecast

×

Almanac

Astronomy

Jul. 01, 2015 Rise Set
Actual Time
Civil Twilight
Nautical Twilight
Astronomical Twilight
Moon
Length of Visible Light
Length of Day
Tomorrow will be .
, % of the Moon is Illuminated

Today's Extremes

State Highs State Lows

Community

WunderPhotos

Upload Photos

1,834,295 photos uploaded!

WunderBlogs® & News

Nearby

Air Quality

  Air Quality AQ Index Pollutant
Not available.

Snow Depth

Station Depth Elevation

Earthquake Activity

City Distance Mag. Time & Date
Minimum magnitude displayed is 2.5.

Coastal Water Temperatures

Place Temperature

Stations

Nearby Weather Stations

Station Location Temp. Windchill Dew Point Humidity Wind Precip. Elev Updated Type